sensor_id;sensor_type;location;lat;lon;timestamp;P1;durP1;ratioP1;P2;durP2;ratioP2
55493;SDS011;41355;50.390;19.096;2023-04-15T00:00:03;30.02;;;10.95;;
55493;SDS011;41355;50.390;19.096;2023-04-15T00:02:29;23.67;;;9.63;;
55493;SDS011;41355;50.390;19.096;2023-04-15T00:04:55;23.90;;;10.32;;
55493;SDS011;41355;50.390;19.096;2023-04-15T00:07:21;23.60;;;10.52;;
55493;SDS011;41355;50.390;19.096;2023-04-15T00:09:47;28.15;;;11.02;;
55493;SDS011;41355;50.390;19.096;2023-04-15T00:12:13;28.00;;;10.75;;
55493;SDS011;41355;50.390;19.096;2023-04-15T00:14:39;26.67;;;10.15;;
55493;SDS011;41355;50.390;19.096;2023-04-15T00:17:05;27.83;;;10.32;;
55493;SDS011;41355;50.390;19.096;2023-04-15T00:19:31;24.35;;;9.95;;
55493;SDS011;41355;50.390;19.096;2023-04-15T00:21:57;31.67;;;13.57;;
55493;SDS011;41355;50.390;19.096;2023-04-15T00:24:23;33.33;;;11.98;;
55493;SDS011;41355;50.390;19.096;2023-04-15T00:26:49;36.25;;;14.95;;
55493;SDS011;41355;50.390;19.096;2023-04-15T00:29:15;33.80;;;12.30;;
55493;SDS011;41355;50.390;19.096;2023-04-15T00:31:41;42.75;;;16.02;;
55493;SDS011;41355;50.390;19.096;2023-04-15T00:34:07;40.00;;;15.32;;
55493;SDS011;41355;50.390;19.096;2023-04-15T00:36:33;38.97;;;15.43;;
55493;SDS011;41355;50.390;19.096;2023-04-15T00:39:00;46.60;;;17.25;;
55493;SDS011;41355;50.390;19.096;2023-04-15T00:41:27;44.67;;;17.73;;
55493;SDS011;41355;50.390;19.096;2023-04-15T00:43:53;31.85;;;12.07;;
55493;SDS011;41355;50.390;19.096;2023-04-15T00:46:20;33.67;;;13.75;;
55493;SDS011;41355;50.390;19.096;2023-04-15T00:48:46;29.75;;;10.68;;
55493;SDS011;41355;50.390;19.096;2023-04-15T00:51:13;31.33;;;11.63;;
55493;SDS011;41355;50.390;19.096;2023-04-15T00:53:39;29.20;;;12.50;;
55493;SDS011;41355;50.390;19.096;2023-04-15T00:56:05;23.83;;;10.13;;
55493;SDS011;41355;50.390;19.096;2023-04-15T00:58:32;30.77;;;11.85;;
55493;SDS011;41355;50.390;19.096;2023-04-15T01:00:58;20.80;;;10.05;;
55493;SDS011;41355;50.390;19.096;2023-04-15T01:03:24;19.40;;;8.35;;
55493;SDS011;41355;50.390;19.096;2023-04-15T01:05:50;18.98;;;8.80;;
55493;SDS011;41355;50.390;19.096;2023-04-15T01:08:23;19.02;;;8.00;;
55493;SDS011;41355;50.390;19.096;2023-04-15T01:10:51;18.83;;;8.70;;
55493;SDS011;41355;50.390;19.096;2023-04-15T01:13:17;21.25;;;8.80;;
55493;SDS011;41355;50.390;19.096;2023-04-15T01:15:43;22.92;;;9.02;;
55493;SDS011;41355;50.390;19.096;2023-04-15T01:18:10;18.33;;;8.55;;
55493;SDS011;41355;50.390;19.096;2023-04-15T01:20:36;22.20;;;9.73;;
55493;SDS011;41355;50.390;19.096;2023-04-15T01:23:02;17.45;;;9.00;;
55493;SDS011;41355;50.390;19.096;2023-04-15T01:25:32;24.85;;;10.35;;
55493;SDS011;41355;50.390;19.096;2023-04-15T01:27:58;20.88;;;10.57;;
55493;SDS011;41355;50.390;19.096;2023-04-15T01:30:25;27.00;;;13.35;;
55493;SDS011;41355;50.390;19.096;2023-04-15T01:32:51;35.15;;;13.93;;
55493;SDS011;41355;50.390;19.096;2023-04-15T01:35:17;29.38;;;12.32;;
55493;SDS011;41355;50.390;19.096;2023-04-15T01:37:43;30.50;;;12.90;;
55493;SDS011;41355;50.390;19.096;2023-04-15T01:40:10;28.38;;;13.07;;
55493;SDS011;41355;50.390;19.096;2023-04-15T01:42:36;27.23;;;10.35;;
55493;SDS011;41355;50.390;19.096;2023-04-15T01:45:02;19.63;;;10.85;;
55493;SDS011;41355;50.390;19.096;2023-04-15T01:47:28;24.23;;;9.65;;
55493;SDS011;41355;50.390;19.096;2023-04-15T01:49:54;23.83;;;10.35;;
55493;SDS011;41355;50.390;19.096;2023-04-15T01:52:20;25.52;;;10.52;;
55493;SDS011;41355;50.390;19.096;2023-04-15T01:54:47;24.60;;;11.32;;
55493;SDS011;41355;50.390;19.096;2023-04-15T01:57:13;24.83;;;11.40;;
55493;SDS011;41355;50.390;19.096;2023-04-15T01:59:39;21.30;;;10.35;;
55493;SDS011;41355;50.390;19.096;2023-04-15T02:02:06;21.60;;;10.25;;
55493;SDS011;41355;50.390;19.096;2023-04-15T02:04:32;21.45;;;9.85;;
55493;SDS011;41355;50.390;19.096;2023-04-15T02:06:58;27.30;;;10.90;;
55493;SDS011;41355;50.390;19.096;2023-04-15T02:09:24;23.42;;;10.77;;
55493;SDS011;41355;50.390;19.096;2023-04-15T02:11:51;30.50;;;11.85;;
55493;SDS011;41355;50.390;19.096;2023-04-15T02:14:18;28.85;;;11.02;;
55493;SDS011;41355;50.390;19.096;2023-04-15T02:16:44;40.88;;;15.57;;
55493;SDS011;41355;50.390;19.096;2023-04-15T02:19:10;31.70;;;12.43;;
55493;SDS011;41355;50.390;19.096;2023-04-15T02:21:36;28.48;;;11.82;;
55493;SDS011;41355;50.390;19.096;2023-04-15T02:24:02;30.40;;;13.20;;
55493;SDS011;41355;50.390;19.096;2023-04-15T02:26:33;23.15;;;11.13;;
55493;SDS011;41355;50.390;19.096;2023-04-15T02:28:59;25.95;;;10.48;;
55493;SDS011;41355;50.390;19.096;2023-04-15T02:31:25;26.35;;;10.75;;
55493;SDS011;41355;50.390;19.096;2023-04-15T02:33:51;26.75;;;11.57;;
55493;SDS011;41355;50.390;19.096;2023-04-15T02:36:17;24.77;;;10.60;;
55493;SDS011;41355;50.390;19.096;2023-04-15T02:38:45;24.60;;;11.07;;
55493;SDS011;41355;50.390;19.096;2023-04-15T02:41:11;21.67;;;9.70;;
55493;SDS011;41355;50.390;19.096;2023-04-15T02:43:37;25.80;;;9.18;;
55493;SDS011;41355;50.390;19.096;2023-04-15T02:46:04;26.60;;;10.73;;
55493;SDS011;41355;50.390;19.096;2023-04-15T02:48:30;27.58;;;10.38;;
55493;SDS011;41355;50.390;19.096;2023-04-15T02:51:29;21.52;;;10.35;;
55493;SDS011;41355;50.390;19.096;2023-04-15T02:53:49;23.20;;;10.23;;
55493;SDS011;41355;50.390;19.096;2023-04-15T02:56:15;25.33;;;10.57;;
55493;SDS011;41355;50.390;19.096;2023-04-15T02:58:42;27.27;;;11.32;;
55493;SDS011;41355;50.390;19.096;2023-04-15T03:01:09;26.27;;;10.80;;
55493;SDS011;41355;50.390;19.096;2023-04-15T03:03:35;24.92;;;10.75;;
55493;SDS011;41355;50.390;19.096;2023-04-15T03:06:01;29.02;;;11.05;;
55493;SDS011;41355;50.390;19.096;2023-04-15T03:08:27;27.17;;;11.77;;
55493;SDS011;41355;50.390;19.096;2023-04-15T03:10:53;29.42;;;11.55;;
55493;SDS011;41355;50.390;19.096;2023-04-15T03:13:19;23.60;;;10.25;;
55493;SDS011;41355;50.390;19.096;2023-04-15T03:15:46;26.58;;;11.13;;
55493;SDS011;41355;50.390;19.096;2023-04-15T03:18:12;26.52;;;11.45;;
55493;SDS011;41355;50.390;19.096;2023-04-15T03:20:38;32.60;;;12.45;;
55493;SDS011;41355;50.390;19.096;2023-04-15T03:23:04;33.22;;;12.50;;
55493;SDS011;41355;50.390;19.096;2023-04-15T03:25:30;31.10;;;12.48;;
55493;SDS011;41355;50.390;19.096;2023-04-15T03:27:56;31.77;;;13.73;;
55493;SDS011;41355;50.390;19.096;2023-04-15T03:30:22;32.70;;;14.10;;
55493;SDS011;41355;50.390;19.096;2023-04-15T03:32:48;30.85;;;13.15;;
55493;SDS011;41355;50.390;19.096;2023-04-15T03:35:15;34.70;;;14.07;;
55493;SDS011;41355;50.390;19.096;2023-04-15T03:37:41;28.13;;;13.48;;
55493;SDS011;41355;50.390;19.096;2023-04-15T03:40:07;29.98;;;13.35;;
55493;SDS011;41355;50.390;19.096;2023-04-15T03:42:33;31.40;;;13.07;;
55493;SDS011;41355;50.390;19.096;2023-04-15T03:45:00;37.15;;;16.08;;
55493;SDS011;41355;50.390;19.096;2023-04-15T03:47:26;33.55;;;14.50;;
55493;SDS011;41355;50.390;19.096;2023-04-15T03:49:52;34.00;;;15.27;;
55493;SDS011;41355;50.390;19.096;2023-04-15T03:52:18;36.92;;;13.80;;
55493;SDS011;41355;50.390;19.096;2023-04-15T03:54:44;34.13;;;14.70;;
55493;SDS011;41355;50.390;19.096;2023-04-15T03:57:10;30.38;;;12.65;;
55493;SDS011;41355;50.390;19.096;2023-04-15T03:59:36;30.15;;;13.77;;
55493;SDS011;41355;50.390;19.096;2023-04-15T04:02:02;27.38;;;11.68;;
55493;SDS011;41355;50.390;19.096;2023-04-15T04:04:28;25.75;;;10.52;;
55493;SDS011;41355;50.390;19.096;2023-04-15T04:06:54;27.08;;;10.68;;
55493;SDS011;41355;50.390;19.096;2023-04-15T04:09:20;22.42;;;9.70;;
55493;SDS011;41355;50.390;19.096;2023-04-15T04:11:46;27.65;;;9.50;;
55493;SDS011;41355;50.390;19.096;2023-04-15T04:14:12;23.42;;;10.02;;
55493;SDS011;41355;50.390;19.096;2023-04-15T04:16:38;22.08;;;9.07;;
55493;SDS011;41355;50.390;19.096;2023-04-15T04:19:05;24.70;;;11.43;;
55493;SDS011;41355;50.390;19.096;2023-04-15T04:21:31;24.50;;;10.15;;
55493;SDS011;41355;50.390;19.096;2023-04-15T04:23:58;21.00;;;8.07;;
55493;SDS011;41355;50.390;19.096;2023-04-15T04:26:24;23.88;;;9.63;;
55493;SDS011;41355;50.390;19.096;2023-04-15T04:28:50;29.17;;;9.88;;
55493;SDS011;41355;50.390;19.096;2023-04-15T04:31:16;23.58;;;8.40;;
55493;SDS011;41355;50.390;19.096;2023-04-15T04:33:42;18.98;;;7.78;;
55493;SDS011;41355;50.390;19.096;2023-04-15T04:36:08;16.92;;;7.95;;
55493;SDS011;41355;50.390;19.096;2023-04-15T04:38:34;21.20;;;9.07;;
55493;SDS011;41355;50.390;19.096;2023-04-15T04:41:00;23.13;;;8.52;;
55493;SDS011;41355;50.390;19.096;2023-04-15T04:43:26;31.05;;;11.45;;
55493;SDS011;41355;50.390;19.096;2023-04-15T04:45:52;20.85;;;9.48;;
55493;SDS011;41355;50.390;19.096;2023-04-15T04:48:18;21.50;;;9.80;;
55493;SDS011;41355;50.390;19.096;2023-04-15T04:50:44;19.45;;;8.20;;
55493;SDS011;41355;50.390;19.096;2023-04-15T04:53:11;25.00;;;9.48;;
55493;SDS011;41355;50.390;19.096;2023-04-15T04:55:37;20.70;;;7.53;;
55493;SDS011;41355;50.390;19.096;2023-04-15T04:58:03;17.20;;;7.13;;
55493;SDS011;41355;50.390;19.096;2023-04-15T05:00:29;17.17;;;8.05;;
55493;SDS011;41355;50.390;19.096;2023-04-15T05:02:55;21.17;;;7.68;;
55493;SDS011;41355;50.390;19.096;2023-04-15T05:05:21;17.80;;;8.05;;
55493;SDS011;41355;50.390;19.096;2023-04-15T05:07:48;18.13;;;7.85;;
55493;SDS011;41355;50.390;19.096;2023-04-15T05:10:14;21.00;;;8.70;;
55493;SDS011;41355;50.390;19.096;2023-04-15T05:12:42;20.00;;;8.02;;
55493;SDS011;41355;50.390;19.096;2023-04-15T05:15:08;21.83;;;9.52;;
55493;SDS011;41355;50.390;19.096;2023-04-15T05:17:34;22.83;;;8.63;;
55493;SDS011;41355;50.390;19.096;2023-04-15T05:20:01;23.85;;;8.93;;
55493;SDS011;41355;50.390;19.096;2023-04-15T05:22:27;24.95;;;9.60;;
55493;SDS011;41355;50.390;19.096;2023-04-15T05:24:53;20.27;;;8.48;;
55493;SDS011;41355;50.390;19.096;2023-04-15T05:27:20;21.13;;;8.75;;
55493;SDS011;41355;50.390;19.096;2023-04-15T05:29:47;20.35;;;8.05;;
55493;SDS011;41355;50.390;19.096;2023-04-15T05:32:13;17.17;;;7.45;;
55493;SDS011;41355;50.390;19.096;2023-04-15T05:34:39;12.25;;;5.30;;
55493;SDS011;41355;50.390;19.096;2023-04-15T05:37:05;18.65;;;6.55;;
55493;SDS011;41355;50.390;19.096;2023-04-15T05:39:31;23.45;;;8.77;;
55493;SDS011;41355;50.390;19.096;2023-04-15T05:41:58;23.92;;;10.07;;
55493;SDS011;41355;50.390;19.096;2023-04-15T05:44:24;24.08;;;9.38;;
55493;SDS011;41355;50.390;19.096;2023-04-15T05:46:50;29.00;;;9.43;;
55493;SDS011;41355;50.390;19.096;2023-04-15T05:49:17;26.20;;;10.15;;
55493;SDS011;41355;50.390;19.096;2023-04-15T05:51:43;24.20;;;9.63;;
55493;SDS011;41355;50.390;19.096;2023-04-15T05:54:09;25.30;;;9.85;;
55493;SDS011;41355;50.390;19.096;2023-04-15T05:56:35;28.08;;;9.95;;
55493;SDS011;41355;50.390;19.096;2023-04-15T05:59:01;26.70;;;9.98;;
55493;SDS011;41355;50.390;19.096;2023-04-15T06:01:27;17.00;;;6.63;;
55493;SDS011;41355;50.390;19.096;2023-04-15T06:03:54;25.65;;;9.52;;
55493;SDS011;41355;50.390;19.096;2023-04-15T06:06:20;11.23;;;4.50;;
55493;SDS011;41355;50.390;19.096;2023-04-15T06:08:46;26.95;;;9.65;;
55493;SDS011;41355;50.390;19.096;2023-04-15T06:11:12;28.63;;;10.70;;
55493;SDS011;41355;50.390;19.096;2023-04-15T06:13:38;24.02;;;8.13;;
55493;SDS011;41355;50.390;19.096;2023-04-15T06:16:05;27.02;;;11.15;;
55493;SDS011;41355;50.390;19.096;2023-04-15T06:18:31;23.48;;;8.70;;
55493;SDS011;41355;50.390;19.096;2023-04-15T06:20:58;28.95;;;11.23;;
55493;SDS011;41355;50.390;19.096;2023-04-15T06:23:24;28.05;;;11.18;;
55493;SDS011;41355;50.390;19.096;2023-04-15T06:25:50;26.90;;;9.80;;
55493;SDS011;41355;50.390;19.096;2023-04-15T06:28:16;26.77;;;10.57;;
55493;SDS011;41355;50.390;19.096;2023-04-15T06:30:42;25.50;;;9.27;;
55493;SDS011;41355;50.390;19.096;2023-04-15T06:33:08;29.52;;;11.15;;
55493;SDS011;41355;50.390;19.096;2023-04-15T06:35:34;26.58;;;9.70;;
55493;SDS011;41355;50.390;19.096;2023-04-15T06:38:01;18.60;;;7.85;;
55493;SDS011;41355;50.390;19.096;2023-04-15T06:40:27;21.95;;;8.95;;
55493;SDS011;41355;50.390;19.096;2023-04-15T06:42:53;24.40;;;9.15;;
55493;SDS011;41355;50.390;19.096;2023-04-15T06:45:20;14.60;;;5.80;;
55493;SDS011;41355;50.390;19.096;2023-04-15T06:47:46;25.83;;;9.48;;
55493;SDS011;41355;50.390;19.096;2023-04-15T06:50:12;19.98;;;7.78;;
55493;SDS011;41355;50.390;19.096;2023-04-15T06:52:39;18.80;;;7.70;;
55493;SDS011;41355;50.390;19.096;2023-04-15T06:55:05;16.98;;;6.05;;
55493;SDS011;41355;50.390;19.096;2023-04-15T06:57:32;19.85;;;7.70;;
55493;SDS011;41355;50.390;19.096;2023-04-15T06:59:58;20.55;;;7.85;;
55493;SDS011;41355;50.390;19.096;2023-04-15T07:02:25;23.45;;;8.63;;
55493;SDS011;41355;50.390;19.096;2023-04-15T07:04:51;18.88;;;8.35;;
55493;SDS011;41355;50.390;19.096;2023-04-15T07:07:17;14.75;;;5.47;;
55493;SDS011;41355;50.390;19.096;2023-04-15T07:09:43;14.55;;;5.47;;
55493;SDS011;41355;50.390;19.096;2023-04-15T07:12:09;16.80;;;6.60;;
55493;SDS011;41355;50.390;19.096;2023-04-15T07:14:35;16.60;;;5.88;;
55493;SDS011;41355;50.390;19.096;2023-04-15T07:17:01;18.70;;;5.90;;
55493;SDS011;41355;50.390;19.096;2023-04-15T07:19:27;13.57;;;5.70;;
55493;SDS011;41355;50.390;19.096;2023-04-15T07:21:53;17.15;;;4.30;;
55493;SDS011;41355;50.390;19.096;2023-04-15T07:24:19;12.23;;;4.95;;
55493;SDS011;41355;50.390;19.096;2023-04-15T07:26:47;13.40;;;4.75;;
55493;SDS011;41355;50.390;19.096;2023-04-15T07:29:13;10.73;;;4.05;;
55493;SDS011;41355;50.390;19.096;2023-04-15T07:31:39;10.98;;;4.38;;
55493;SDS011;41355;50.390;19.096;2023-04-15T07:34:06;9.77;;;3.50;;
55493;SDS011;41355;50.390;19.096;2023-04-15T07:36:32;12.25;;;4.63;;
55493;SDS011;41355;50.390;19.096;2023-04-15T07:38:58;13.98;;;5.13;;
55493;SDS011;41355;50.390;19.096;2023-04-15T07:41:26;11.75;;;5.35;;
55493;SDS011;41355;50.390;19.096;2023-04-15T07:43:52;11.07;;;3.90;;
55493;SDS011;41355;50.390;19.096;2023-04-15T07:46:18;10.52;;;4.20;;
55493;SDS011;41355;50.390;19.096;2023-04-15T07:48:44;12.32;;;4.60;;
55493;SDS011;41355;50.390;19.096;2023-04-15T07:51:11;12.20;;;4.55;;
55493;SDS011;41355;50.390;19.096;2023-04-15T07:53:37;11.10;;;3.85;;
55493;SDS011;41355;50.390;19.096;2023-04-15T07:56:03;7.07;;;2.85;;
55493;SDS011;41355;50.390;19.096;2023-04-15T07:58:29;6.13;;;1.75;;
55493;SDS011;41355;50.390;19.096;2023-04-15T08:00:55;5.60;;;2.38;;
55493;SDS011;41355;50.390;19.096;2023-04-15T08:03:21;5.88;;;2.10;;
55493;SDS011;41355;50.390;19.096;2023-04-15T08:05:47;5.45;;;1.70;;
55493;SDS011;41355;50.390;19.096;2023-04-15T08:08:13;6.43;;;1.65;;
55493;SDS011;41355;50.390;19.096;2023-04-15T08:10:39;4.28;;;1.63;;
55493;SDS011;41355;50.390;19.096;2023-04-15T08:13:06;5.05;;;1.63;;
55493;SDS011;41355;50.390;19.096;2023-04-15T08:15:32;5.90;;;1.80;;
55493;SDS011;41355;50.390;19.096;2023-04-15T08:17:58;4.90;;;1.70;;
55493;SDS011;41355;50.390;19.096;2023-04-15T08:20:25;4.70;;;1.65;;
55493;SDS011;41355;50.390;19.096;2023-04-15T08:22:51;4.40;;;1.77;;
55493;SDS011;41355;50.390;19.096;2023-04-15T08:25:17;7.00;;;1.70;;
55493;SDS011;41355;50.390;19.096;2023-04-15T08:27:44;5.25;;;1.60;;
55493;SDS011;41355;50.390;19.096;2023-04-15T08:30:10;4.88;;;1.60;;
55493;SDS011;41355;50.390;19.096;2023-04-15T08:32:37;4.10;;;1.58;;
55493;SDS011;41355;50.390;19.096;2023-04-15T08:35:03;6.88;;;1.80;;
55493;SDS011;41355;50.390;19.096;2023-04-15T08:37:29;5.78;;;1.40;;
55493;SDS011;41355;50.390;19.096;2023-04-15T08:39:55;4.70;;;1.42;;
55493;SDS011;41355;50.390;19.096;2023-04-15T08:42:31;5.40;;;1.40;;
55493;SDS011;41355;50.390;19.096;2023-04-15T08:45:01;3.55;;;1.38;;
55493;SDS011;41355;50.390;19.096;2023-04-15T08:47:29;3.72;;;1.25;;
55493;SDS011;41355;50.390;19.096;2023-04-15T08:49:58;4.75;;;1.50;;
55493;SDS011;41355;50.390;19.096;2023-04-15T08:52:29;5.85;;;1.70;;
55493;SDS011;41355;50.390;19.096;2023-04-15T08:54:56;4.00;;;1.25;;
55493;SDS011;41355;50.390;19.096;2023-04-15T08:57:25;8.60;;;3.33;;
55493;SDS011;41355;50.390;19.096;2023-04-15T08:59:52;8.63;;;3.53;;
55493;SDS011;41355;50.390;19.096;2023-04-15T09:02:19;19.70;;;4.63;;
55493;SDS011;41355;50.390;19.096;2023-04-15T09:04:45;8.35;;;3.60;;
55493;SDS011;41355;50.390;19.096;2023-04-15T09:07:11;10.68;;;3.85;;
55493;SDS011;41355;50.390;19.096;2023-04-15T09:09:37;10.88;;;4.40;;
55493;SDS011;41355;50.390;19.096;2023-04-15T09:12:06;9.75;;;2.92;;
55493;SDS011;41355;50.390;19.096;2023-04-15T09:14:33;10.68;;;3.28;;
55493;SDS011;41355;50.390;19.096;2023-04-15T09:17:02;7.45;;;3.03;;
55493;SDS011;41355;50.390;19.096;2023-04-15T09:19:29;6.80;;;2.50;;
55493;SDS011;41355;50.390;19.096;2023-04-15T09:21:56;9.48;;;2.78;;
55493;SDS011;41355;50.390;19.096;2023-04-15T09:24:22;7.25;;;2.90;;
55493;SDS011;41355;50.390;19.096;2023-04-15T09:26:52;9.23;;;2.70;;
55493;SDS011;41355;50.390;19.096;2023-04-15T09:29:23;7.88;;;2.78;;
55493;SDS011;41355;50.390;19.096;2023-04-15T09:31:51;11.45;;;2.92;;
55493;SDS011;41355;50.390;19.096;2023-04-15T09:34:17;8.35;;;2.40;;
55493;SDS011;41355;50.390;19.096;2023-04-15T09:39:15;8.73;;;3.30;;
55493;SDS011;41355;50.390;19.096;2023-04-15T09:41:41;9.85;;;4.00;;
55493;SDS011;41355;50.390;19.096;2023-04-15T09:44:23;8.20;;;2.70;;
55493;SDS011;41355;50.390;19.096;2023-04-15T09:46:50;6.50;;;2.30;;
55493;SDS011;41355;50.390;19.096;2023-04-15T09:49:16;7.43;;;2.53;;
55493;SDS011;41355;50.390;19.096;2023-04-15T09:51:42;7.50;;;2.40;;
55493;SDS011;41355;50.390;19.096;2023-04-15T09:54:08;7.35;;;2.60;;
55493;SDS011;41355;50.390;19.096;2023-04-15T09:56:37;7.30;;;2.90;;
55493;SDS011;41355;50.390;19.096;2023-04-15T09:59:07;6.68;;;2.55;;
55493;SDS011;41355;50.390;19.096;2023-04-15T10:01:33;6.88;;;2.70;;
55493;SDS011;41355;50.390;19.096;2023-04-15T10:04:03;6.95;;;2.50;;
55493;SDS011;41355;50.390;19.096;2023-04-15T10:06:29;6.60;;;2.60;;
55493;SDS011;41355;50.390;19.096;2023-04-15T10:08:56;7.10;;;2.88;;
55493;SDS011;41355;50.390;19.096;2023-04-15T10:11:22;5.47;;;2.03;;
55493;SDS011;41355;50.390;19.096;2023-04-15T10:13:49;6.85;;;2.72;;
55493;SDS011;41355;50.390;19.096;2023-04-15T10:16:15;7.13;;;2.60;;
55493;SDS011;41355;50.390;19.096;2023-04-15T10:18:47;6.10;;;2.50;;
55493;SDS011;41355;50.390;19.096;2023-04-15T10:21:16;6.72;;;2.47;;
55493;SDS011;41355;50.390;19.096;2023-04-15T10:23:44;6.75;;;2.47;;
55493;SDS011;41355;50.390;19.096;2023-04-15T10:26:11;5.78;;;2.67;;
55493;SDS011;41355;50.390;19.096;2023-04-15T10:28:39;5.72;;;2.30;;
55493;SDS011;41355;50.390;19.096;2023-04-15T10:31:05;8.45;;;3.22;;
55493;SDS011;41355;50.390;19.096;2023-04-15T10:33:31;6.20;;;2.58;;
55493;SDS011;41355;50.390;19.096;2023-04-15T10:35:58;6.75;;;2.20;;
55493;SDS011;41355;50.390;19.096;2023-04-15T10:38:57;6.53;;;2.47;;
55493;SDS011;41355;50.390;19.096;2023-04-15T10:41:26;6.85;;;2.58;;
55493;SDS011;41355;50.390;19.096;2023-04-15T10:49:09;7.50;;;2.75;;
55493;SDS011;41355;50.390;19.096;2023-04-15T10:51:40;7.70;;;2.80;;
55493;SDS011;41355;50.390;19.096;2023-04-15T10:54:16;7.80;;;3.13;;
55493;SDS011;41355;50.390;19.096;2023-04-15T10:56:43;11.43;;;4.40;;
55493;SDS011;41355;50.390;19.096;2023-04-15T10:59:09;7.70;;;3.45;;
55493;SDS011;41355;50.390;19.096;2023-04-15T11:01:54;11.25;;;3.13;;
55493;SDS011;41355;50.390;19.096;2023-04-15T11:07:07;9.88;;;3.63;;
55493;SDS011;41355;50.390;19.096;2023-04-15T11:09:33;8.82;;;3.72;;
55493;SDS011;41355;50.390;19.096;2023-04-15T11:12:06;8.93;;;3.55;;
55493;SDS011;41355;50.390;19.096;2023-04-15T11:14:33;9.43;;;3.00;;
55493;SDS011;41355;50.390;19.096;2023-04-15T11:17:00;9.50;;;3.85;;
55493;SDS011;41355;50.390;19.096;2023-04-15T11:19:26;11.02;;;4.28;;
55493;SDS011;41355;50.390;19.096;2023-04-15T11:24:26;10.43;;;3.78;;
55493;SDS011;41355;50.390;19.096;2023-04-15T11:26:57;8.00;;;3.35;;
55493;SDS011;41355;50.390;19.096;2023-04-15T11:29:33;8.75;;;4.10;;
55493;SDS011;41355;50.390;19.096;2023-04-15T11:32:08;11.05;;;4.40;;
55493;SDS011;41355;50.390;19.096;2023-04-15T11:34:34;11.82;;;4.45;;
55493;SDS011;41355;50.390;19.096;2023-04-15T11:37:04;9.43;;;3.88;;
55493;SDS011;41355;50.390;19.096;2023-04-15T11:39:31;9.13;;;3.75;;
55493;SDS011;41355;50.390;19.096;2023-04-15T11:41:57;15.55;;;4.47;;
55493;SDS011;41355;50.390;19.096;2023-04-15T11:44:23;8.73;;;3.92;;
55493;SDS011;41355;50.390;19.096;2023-04-15T11:46:49;8.88;;;4.03;;
55493;SDS011;41355;50.390;19.096;2023-04-15T11:49:30;14.68;;;4.43;;
55493;SDS011;41355;50.390;19.096;2023-04-15T11:51:58;11.43;;;4.28;;
55493;SDS011;41355;50.390;19.096;2023-04-15T11:54:24;10.50;;;4.13;;
55493;SDS011;41355;50.390;19.096;2023-04-15T11:56:50;13.80;;;5.90;;
55493;SDS011;41355;50.390;19.096;2023-04-15T11:59:18;10.50;;;3.88;;
55493;SDS011;41355;50.390;19.096;2023-04-15T12:01:44;7.25;;;3.10;;
55493;SDS011;41355;50.390;19.096;2023-04-15T12:06:37;9.52;;;3.67;;
55493;SDS011;41355;50.390;19.096;2023-04-15T12:11:36;7.80;;;3.15;;
55493;SDS011;41355;50.390;19.096;2023-04-15T12:16:32;9.35;;;3.42;;
55493;SDS011;41355;50.390;19.096;2023-04-15T12:19:03;7.57;;;3.00;;
55493;SDS011;41355;50.390;19.096;2023-04-15T12:21:32;7.13;;;3.03;;
55493;SDS011;41355;50.390;19.096;2023-04-15T12:24:02;17.92;;;6.65;;
55493;SDS011;41355;50.390;19.096;2023-04-15T12:26:36;9.23;;;3.78;;
55493;SDS011;41355;50.390;19.096;2023-04-15T12:29:04;8.43;;;2.72;;
55493;SDS011;41355;50.390;19.096;2023-04-15T12:31:31;11.65;;;4.85;;
55493;SDS011;41355;50.390;19.096;2023-04-15T12:33:57;14.95;;;6.30;;
55493;SDS011;41355;50.390;19.096;2023-04-15T12:36:24;12.43;;;4.25;;
55493;SDS011;41355;50.390;19.096;2023-04-15T12:38:50;7.30;;;2.90;;
55493;SDS011;41355;50.390;19.096;2023-04-15T12:41:16;8.48;;;3.30;;
55493;SDS011;41355;50.390;19.096;2023-04-15T12:43:43;6.90;;;3.00;;
55493;SDS011;41355;50.390;19.096;2023-04-15T12:46:10;9.93;;;4.55;;
55493;SDS011;41355;50.390;19.096;2023-04-15T12:48:36;8.77;;;3.70;;
55493;SDS011;41355;50.390;19.096;2023-04-15T12:51:02;9.55;;;4.75;;
55493;SDS011;41355;50.390;19.096;2023-04-15T12:53:28;7.80;;;3.00;;
55493;SDS011;41355;50.390;19.096;2023-04-15T12:55:55;6.80;;;3.75;;
55493;SDS011;41355;50.390;19.096;2023-04-15T12:58:21;5.65;;;2.83;;
55493;SDS011;41355;50.390;19.096;2023-04-15T13:00:47;6.65;;;2.38;;
55493;SDS011;41355;50.390;19.096;2023-04-15T13:03:14;8.88;;;2.80;;
55493;SDS011;41355;50.390;19.096;2023-04-15T13:05:40;6.90;;;2.80;;
55493;SDS011;41355;50.390;19.096;2023-04-15T13:08:06;6.07;;;2.30;;
55493;SDS011;41355;50.390;19.096;2023-04-15T13:10:32;6.20;;;2.55;;
55493;SDS011;41355;50.390;19.096;2023-04-15T13:13:00;5.93;;;2.70;;
55493;SDS011;41355;50.390;19.096;2023-04-15T13:15:28;7.28;;;3.38;;
55493;SDS011;41355;50.390;19.096;2023-04-15T13:17:54;6.20;;;2.15;;
55493;SDS011;41355;50.390;19.096;2023-04-15T13:20:20;6.13;;;2.35;;
55493;SDS011;41355;50.390;19.096;2023-04-15T13:22:46;5.03;;;1.92;;
55493;SDS011;41355;50.390;19.096;2023-04-15T13:25:12;6.25;;;1.98;;
55493;SDS011;41355;50.390;19.096;2023-04-15T13:27:39;5.43;;;1.90;;
55493;SDS011;41355;50.390;19.096;2023-04-15T13:30:05;5.07;;;1.75;;
55493;SDS011;41355;50.390;19.096;2023-04-15T13:32:31;6.13;;;2.70;;
55493;SDS011;41355;50.390;19.096;2023-04-15T13:34:57;5.28;;;2.20;;
55493;SDS011;41355;50.390;19.096;2023-04-15T13:37:27;4.57;;;1.92;;
55493;SDS011;41355;50.390;19.096;2023-04-15T13:39:53;5.40;;;2.13;;
55493;SDS011;41355;50.390;19.096;2023-04-15T13:42:20;6.68;;;2.40;;
55493;SDS011;41355;50.390;19.096;2023-04-15T13:44:46;6.47;;;2.17;;
55493;SDS011;41355;50.390;19.096;2023-04-15T13:47:12;5.95;;;2.45;;
55493;SDS011;41355;50.390;19.096;2023-04-15T13:49:40;7.47;;;2.30;;
55493;SDS011;41355;50.390;19.096;2023-04-15T13:52:06;7.47;;;2.75;;
55493;SDS011;41355;50.390;19.096;2023-04-15T13:54:32;6.60;;;2.58;;
55493;SDS011;41355;50.390;19.096;2023-04-15T13:56:58;14.05;;;5.95;;
55493;SDS011;41355;50.390;19.096;2023-04-15T13:59:25;15.68;;;7.80;;
55493;SDS011;41355;50.390;19.096;2023-04-15T14:01:51;27.77;;;14.82;;
55493;SDS011;41355;50.390;19.096;2023-04-15T14:04:18;20.90;;;10.85;;
55493;SDS011;41355;50.390;19.096;2023-04-15T14:06:44;8.88;;;4.68;;
55493;SDS011;41355;50.390;19.096;2023-04-15T14:09:10;10.93;;;4.85;;
55493;SDS011;41355;50.390;19.096;2023-04-15T14:11:39;16.35;;;7.90;;
55493;SDS011;41355;50.390;19.096;2023-04-15T14:14:05;6.47;;;2.03;;
55493;SDS011;41355;50.390;19.096;2023-04-15T14:16:32;7.35;;;2.58;;
55493;SDS011;41355;50.390;19.096;2023-04-15T14:18:58;4.80;;;2.03;;
55493;SDS011;41355;50.390;19.096;2023-04-15T14:21:24;4.70;;;1.80;;
55493;SDS011;41355;50.390;19.096;2023-04-15T14:23:52;7.40;;;3.60;;
55493;SDS011;41355;50.390;19.096;2023-04-15T14:26:18;4.75;;;2.20;;
55493;SDS011;41355;50.390;19.096;2023-04-15T14:28:44;6.35;;;2.33;;
55493;SDS011;41355;50.390;19.096;2023-04-15T14:31:10;7.75;;;2.63;;
55493;SDS011;41355;50.390;19.096;2023-04-15T14:33:36;10.07;;;4.03;;
55493;SDS011;41355;50.390;19.096;2023-04-15T14:36:02;16.70;;;6.95;;
55493;SDS011;41355;50.390;19.096;2023-04-15T14:38:28;6.82;;;3.78;;
55493;SDS011;41355;50.390;19.096;2023-04-15T14:40:54;7.00;;;3.63;;